Time;durP1;ratioP1;P1;durP2;ratioP2;P2;SDS_P1;SDS_P2;PMS_P1;PMS_P2;Temp;Humidity;BMP_temperature;BMP_pressure;BME280_temperature;BME280_humidity;BME280_pressure;Samples;Min_cycle;Max_cycle;Signal;HPM_P1;HPM_P2
2021/06/12 00:02:04;;;;;;;11.52;9.02;;;22.10;99.90;;;;;;3570129;40;20299;-86
2021/06/12 00:04:34;;;;;;;11.07;9.02;;;22.00;99.90;;;;;;3564319;40;20120;-84
2021/06/12 00:07:01;;;;;;;11.73;8.80;;;21.90;99.90;;;;;;3573629;40;20089;-81
2021/06/12 00:09:29;;;;;;;12.50;9.38;;;21.90;99.90;;;;;;3565058;40;20081;-81
2021/06/12 00:11:56;;;;;;;13.23;10.52;;;21.80;99.90;;;;;;3571777;40;20118;-82
2021/06/12 00:14:29;;;;;;;10.82;9.55;;;21.80;99.90;;;;;;3566532;40;20073;-87
2021/06/12 00:16:58;;;;;;;12.27;9.30;;;21.70;99.90;;;;;;3563024;40;20040;-85
2021/06/12 00:19:26;;;;;;;;;;;21.70;99.90;;;;;;3589582;40;20045;-86
2021/06/12 00:21:53;;;;;;;14.00;9.70;;;21.60;99.90;;;;;;3577027;40;19960;-87
2021/06/12 00:24:21;;;;;;;13.60;9.30;;;21.60;99.90;;;;;;3578010;40;20288;-84
2021/06/12 00:26:49;;;;;;;12.60;9.60;;;21.60;99.90;;;;;;3560751;40;20077;-87
2021/06/12 00:29:18;;;;;;;14.70;9.98;;;21.60;99.90;;;;;;3575653;40;20096;-85
2021/06/12 00:31:45;;;;;;;15.32;10.93;;;21.60;99.90;;;;;;3560259;40;20082;-86
2021/06/12 00:34:14;;;;;;;14.63;10.63;;;21.70;99.90;;;;;;3579027;40;20089;-84
2021/06/12 00:36:41;;;;;;;;;;;21.60;99.90;;;;;;3577637;40;20179;-85
2021/06/12 00:39:08;;;;;;;13.88;10.88;;;21.60;99.90;;;;;;3567373;40;19972;-86
2021/06/12 00:41:37;;;;;;;15.25;10.80;;;21.50;99.90;;;;;;3567559;40;20080;-84
2021/06/12 00:44:05;;;;;;;12.57;10.38;;;21.50;99.90;;;;;;3566494;40;20065;-83
2021/06/12 00:46:33;;;;;;;11.90;10.25;;;21.50;99.90;;;;;;3568051;40;20484;-85
2021/06/12 00:49:00;;;;;;;16.48;10.73;;;21.50;99.90;;;;;;3570383;40;20085;-83
2021/06/12 00:51:29;;;;;;;13.70;10.23;;;21.40;99.90;;;;;;3590619;40;20070;-85
2021/06/12 00:53:57;;;;;;;16.20;11.20;;;21.50;99.90;;;;;;3563556;40;20097;-85
2021/06/12 00:56:26;;;;;;;15.60;11.75;;;21.50;99.90;;;;;;3593297;40;20065;-88
2021/06/12 00:58:53;;;;;;;16.85;11.45;;;21.40;99.90;;;;;;3593376;40;20073;-84
2021/06/12 01:01:22;;;;;;;16.58;11.77;;;21.40;99.90;;;;;;3575456;40;20080;-83
2021/06/12 01:03:49;;;;;;;;;;;21.20;99.90;;;;;;3583631;40;20088;-85
2021/06/12 01:06:20;;;;;;;18.45;12.38;;;21.20;99.90;;;;;;3581177;40;19968;-83
2021/06/12 01:08:48;;;;;;;19.15;12.52;;;21.20;99.90;;;;;;3578445;40;20061;-84
2021/06/12 01:11:18;;;;;;;16.75;13.02;;;21.10;99.90;;;;;;3577592;40;20084;-85
2021/06/12 01:13:58;;;;;;;20.05;13.27;;;21.00;99.90;;;;;;3584036;40;20085;-84
2021/06/12 01:16:32;;;;;;;16.00;12.20;;;21.00;99.90;;;;;;3585767;40;20305;-84
2021/06/12 01:19:09;;;;;;;18.15;12.70;;;21.00;99.90;;;;;;3584688;40;20060;-87
2021/06/12 01:21:41;;;;;;;17.65;14.13;;;20.80;99.90;;;;;;3578355;40;20049;-88
2021/06/12 01:24:47;;;;;;;18.17;12.63;;;20.70;99.90;;;;;;3590180;40;20040;-87
2021/06/12 01:27:46;;;;;;;15.65;12.93;;;20.60;99.90;;;;;;3593721;40;20051;-87
2021/06/12 01:30:17;;;;;;;18.15;12.93;;;20.60;99.90;;;;;;3556920;40;20053;-87
2021/06/12 01:32:51;;;;;;;14.15;12.60;;;20.50;99.90;;;;;;3588610;40;20092;-86
2021/06/12 01:35:28;;;;;;;16.83;13.32;;;20.50;99.90;;;;;;3581004;40;20047;-86
2021/06/12 01:37:57;;;;;;;19.83;14.02;;;20.50;99.90;;;;;;3572731;40;20068;-87
2021/06/12 01:40:31;;;;;;;18.80;13.10;;;20.40;99.90;;;;;;3575945;40;20060;-86
2021/06/12 01:43:00;;;;;;;17.27;13.93;;;20.30;99.90;;;;;;3563952;40;20084;-88
2021/06/12 01:45:29;;;;;;;16.67;13.40;;;20.30;99.90;;;;;;3578531;40;20097;-85
2021/06/12 01:47:58;;;;;;;19.20;13.40;;;20.30;99.90;;;;;;3586502;40;20284;-87
2021/06/12 01:54:58;;;;;;;19.95;13.02;;;20.20;99.90;;;;;;3594769;40;20063;-88
2021/06/12 01:57:25;;;;;;;18.48;13.52;;;20.20;99.90;;;;;;3570520;40;20057;-87
2021/06/12 01:59:55;;;;;;;20.50;13.32;;;20.00;99.90;;;;;;3564903;40;20033;-86
2021/06/12 02:02:25;;;;;;;15.75;12.30;;;20.00;99.90;;;;;;3572217;40;20041;-88
2021/06/12 02:04:52;;;;;;;21.50;13.30;;;19.90;99.90;;;;;;3554401;40;20057;-87
2021/06/12 02:07:20;;;;;;;16.98;12.80;;;19.90;99.90;;;;;;3580898;40;20057;-87
2021/06/12 02:09:51;;;;;;;17.63;12.35;;;19.90;99.90;;;;;;3567666;40;20084;-87
2021/06/12 02:12:19;;;;;;;16.35;12.70;;;19.90;99.90;;;;;;3568970;40;20076;-86
2021/06/12 02:14:48;;;;;;;17.63;12.27;;;19.90;99.90;;;;;;3578706;40;20393;-88
2021/06/12 02:17:18;;;;;;;18.42;13.18;;;19.90;99.90;;;;;;3588247;40;20037;-88
2021/06/12 02:19:47;;;;;;;20.63;11.85;;;19.90;99.90;;;;;;3570788;40;20064;-87
2021/06/12 02:22:15;;;;;;;16.23;11.13;;;19.90;99.90;;;;;;3578874;40;20080;-87
2021/06/12 02:24:44;;;;;;;15.63;12.20;;;19.90;99.90;;;;;;3570105;40;20103;-87
2021/06/12 02:27:12;;;;;;;18.98;11.93;;;19.80;99.90;;;;;;3576904;40;20077;-87
2021/06/12 02:29:40;;;;;;;17.80;11.60;;;19.70;99.90;;;;;;3567767;40;20080;-87
2021/06/12 02:32:11;;;;;;;15.65;11.30;;;19.60;99.90;;;;;;3564739;40;20062;-87
2021/06/12 02:34:38;;;;;;;17.40;11.55;;;19.60;99.90;;;;;;3577776;40;20077;-88
2021/06/12 02:37:08;;;;;;;17.27;10.65;;;19.60;99.90;;;;;;3591085;40;20044;-86
2021/06/12 02:39:36;;;;;;;16.05;10.95;;;19.50;99.90;;;;;;3579451;40;20045;-86
2021/06/12 02:42:05;;;;;;;14.68;11.23;;;19.50;99.90;;;;;;3569201;40;20301;-86
2021/06/12 02:44:32;;;;;;;;;;;19.50;99.90;;;;;;3577816;40;20070;-88
2021/06/12 02:47:03;;;;;;;16.45;10.57;;;19.50;99.90;;;;;;3570936;40;20185;-86
2021/06/12 02:49:34;;;;;;;18.58;10.82;;;19.50;99.90;;;;;;3570492;40;20076;-85
2021/06/12 02:52:05;;;;;;;17.08;11.20;;;19.50;99.90;;;;;;3571024;40;20395;-86
2021/06/12 02:54:38;;;;;;;12.68;9.98;;;19.40;99.90;;;;;;3572553;40;20317;-89
2021/06/12 02:57:09;;;;;;;16.63;10.95;;;19.40;99.90;;;;;;3580281;40;20045;-88
2021/06/12 02:59:44;;;;;;;15.25;10.52;;;19.40;99.90;;;;;;3573888;40;20037;-87
2021/06/12 03:02:13;;;;;;;14.05;10.70;;;19.30;99.90;;;;;;3587385;40;20061;-87
2021/06/12 03:04:42;;;;;;;14.70;9.85;;;19.40;99.90;;;;;;3569220;40;20029;-85
2021/06/12 03:07:12;;;;;;;17.10;10.73;;;19.40;99.90;;;;;;3574069;40;20084;-86
2021/06/12 03:09:44;;;;;;;14.15;10.07;;;19.50;99.90;;;;;;3575876;40;20089;-87
2021/06/12 03:12:13;;;;;;;17.27;10.90;;;19.60;99.90;;;;;;3569019;40;20070;-86
2021/06/12 03:14:41;;;;;;;;;;;19.60;99.90;;;;;;3571817;40;20044;-87
2021/06/12 03:17:09;;;;;;;16.30;10.18;;;19.60;99.90;;;;;;3580806;40;19964;-87
2021/06/12 03:19:38;;;;;;;12.77;10.15;;;19.50;99.90;;;;;;3572872;40;20405;-87
2021/06/12 03:22:07;;;;;;;12.90;9.98;;;19.60;99.90;;;;;;3572532;40;20064;-88
2021/06/12 03:24:36;;;;;;;11.50;9.40;;;19.60;99.90;;;;;;3583242;40;20080;-87
2021/06/12 03:27:06;;;;;;;16.08;9.98;;;19.60;99.90;;;;;;3577897;40;20418;-87
2021/06/12 03:29:35;;;;;;;13.07;9.85;;;19.50;99.90;;;;;;3579669;40;20060;-86
2021/06/12 03:32:02;;;;;;;16.80;10.27;;;19.40;99.90;;;;;;3571831;40;20085;-86
2021/06/12 03:34:30;;;;;;;16.08;11.05;;;19.50;99.90;;;;;;3580490;40;20097;-88
2021/06/12 03:36:58;;;;;;;19.58;11.07;;;19.40;99.90;;;;;;3551350;40;20066;-86
2021/06/12 03:39:25;;;;;;;14.27;10.13;;;19.40;99.90;;;;;;3543596;40;20070;-86
2021/06/12 03:41:54;;;;;;;19.58;10.65;;;19.40;99.90;;;;;;3547414;40;20121;-87
2021/06/12 03:44:25;;;;;;;16.65;10.45;;;19.40;99.90;;;;;;3555864;40;20408;-86
2021/06/12 03:46:58;;;;;;;18.02;11.57;;;19.50;99.90;;;;;;3550977;40;20105;-86
2021/06/12 03:49:26;;;;;;;16.40;11.63;;;19.40;99.90;;;;;;3551353;40;20058;-88
2021/06/12 03:51:58;;;;;;;15.02;10.20;;;19.40;99.90;;;;;;3548924;40;20089;-84
2021/06/12 03:54:26;;;;;;;15.43;11.15;;;19.40;99.90;;;;;;3547092;40;20063;-86
2021/06/12 03:56:54;;;;;;;14.90;11.15;;;19.30;99.90;;;;;;3556678;40;20421;-87
2021/06/12 03:59:23;;;;;;;15.97;10.93;;;19.30;99.90;;;;;;3550090;40;20058;-87
2021/06/12 04:01:51;;;;;;;14.82;10.23;;;19.30;99.90;;;;;;3548727;40;20344;-88
2021/06/12 04:04:21;;;;;;;15.10;10.65;;;19.40;99.90;;;;;;3550193;40;20401;-88
2021/06/12 04:06:48;;;;;;;13.77;10.65;;;19.40;99.90;;;;;;3543562;40;20310;-87
2021/06/12 04:09:15;;;;;;;18.38;10.23;;;19.40;99.90;;;;;;3578100;40;20400;-88
2021/06/12 04:11:42;;;;;;;13.55;10.60;;;19.40;99.90;;;;;;3568884;40;20124;-87
2021/06/12 04:14:11;;;;;;;17.70;10.57;;;19.50;99.90;;;;;;3549405;40;20092;-87
2021/06/12 04:16:39;;;;;;;;;;;19.60;99.90;;;;;;3571238;40;20053;-88
2021/06/12 04:19:09;;;;;;;14.77;10.15;;;19.60;99.90;;;;;;3575896;40;19973;-88
2021/06/12 04:21:36;;;;;;;14.82;9.40;;;19.70;99.90;;;;;;3568503;40;20093;-87
2021/06/12 04:24:04;;;;;;;16.48;10.15;;;19.70;99.90;;;;;;3565972;40;20085;-86
2021/06/12 04:26:31;;;;;;;17.75;9.82;;;19.70;99.90;;;;;;3567285;40;20065;-87
2021/06/12 04:29:24;;;;;;;14.48;9.70;;;19.70;99.90;;;;;;3584918;40;20032;-87
2021/06/12 04:31:53;;;;;;;12.93;8.90;;;19.80;99.90;;;;;;3585669;40;20061;-88
2021/06/12 04:34:20;;;;;;;12.02;9.10;;;19.80;99.90;;;;;;3571119;40;20065;-86
2021/06/12 04:36:48;;;;;;;13.02;9.20;;;19.70;99.90;;;;;;3587122;40;20092;-85
2021/06/12 04:39:15;;;;;;;13.73;9.38;;;19.90;99.90;;;;;;3577829;40;20073;-88
2021/06/12 04:41:43;;;;;;;19.85;10.45;;;19.90;99.90;;;;;;3550773;40;20090;-86
2021/06/12 04:44:10;;;;;;;16.17;9.25;;;20.00;99.90;;;;;;3560329;40;20074;-87
2021/06/12 04:46:39;;;;;;;17.42;9.20;;;19.90;99.90;;;;;;3562384;40;20068;-88
2021/06/12 04:49:07;;;;;;;14.75;9.88;;;20.00;99.90;;;;;;3577637;40;20080;-87
2021/06/12 04:51:35;;;;;;;11.23;9.30;;;20.00;99.90;;;;;;3581705;40;20317;-86
2021/06/12 04:54:03;;;;;;;14.57;10.18;;;20.00;99.90;;;;;;3586597;40;20113;-87
2021/06/12 04:56:30;;;;;;;17.02;9.73;;;20.00;99.90;;;;;;3574031;40;20072;-91
2021/06/12 04:58:57;;;;;;;14.52;9.68;;;20.00;99.90;;;;;;3576763;40;20077;-86
2021/06/12 05:01:24;;;;;;;14.52;8.75;;;20.10;99.90;;;;;;3565073;40;20070;-87
2021/06/12 05:03:52;;;;;;;11.27;8.63;;;20.20;99.90;;;;;;3587261;40;20081;-88
2021/06/12 05:06:20;;;;;;;14.40;9.43;;;20.30;99.90;;;;;;3573281;40;20086;-88
2021/06/12 05:08:48;;;;;;;13.30;9.32;;;20.20;99.90;;;;;;3572474;40;20065;-90
2021/06/12 05:11:17;;;;;;;16.10;8.98;;;20.20;99.90;;;;;;3569033;40;20069;-88
2021/06/12 05:13:44;;;;;;;12.82;8.25;;;20.30;99.90;;;;;;3583827;40;20579;-85
2021/06/12 05:16:11;;;;;;;13.93;8.43;;;20.50;99.90;;;;;;3578397;40;20068;-86
2021/06/12 05:18:41;;;;;;;16.13;8.48;;;20.70;99.90;;;;;;3552985;40;20084;-85
2021/06/12 05:21:09;;;;;;;9.27;7.28;;;20.90;99.90;;;;;;3576461;40;20063;-84
2021/06/12 05:23:37;;;;;;;12.25;7.63;;;21.00;99.90;;;;;;3580360;40;20081;-88
2021/06/12 05:26:07;;;;;;;14.70;7.68;;;21.00;99.90;;;;;;3578629;40;20052;-87
2021/06/12 05:28:34;;;;;;;12.57;7.50;;;21.10;99.90;;;;;;3571575;40;20041;-88
2021/06/12 05:31:01;;;;;;;13.32;7.07;;;21.20;99.90;;;;;;3573625;40;20037;-87
2021/06/12 05:33:33;;;;;;;12.00;7.35;;;21.30;99.90;;;;;;3642939;22;20073;-89
2021/06/12 05:36:10;;;;;;;11.05;7.35;;;21.40;99.90;;;;;;3640121;22;20044;-90
2021/06/12 05:38:42;;;;;;;10.90;6.43;;;21.30;99.90;;;;;;3593026;40;20114;-86
2021/06/12 05:41:10;;;;;;;12.65;7.00;;;21.40;99.90;;;;;;3604641;39;20576;-86
2021/06/12 05:43:37;;;;;;;11.23;6.80;;;21.40;99.90;;;;;;3609303;39;20068;-88
2021/06/12 05:46:04;;;;;;;11.40;6.13;;;21.50;99.90;;;;;;3598472;40;20079;-85
2021/06/12 05:48:35;;;;;;;18.50;7.53;;;21.70;99.90;;;;;;3588370;40;20368;-84
2021/06/12 05:51:04;;;;;;;7.68;6.05;;;21.70;99.90;;;;;;3596410;40;20363;-86
2021/06/12 05:53:32;;;;;;;13.60;6.65;;;21.70;99.90;;;;;;3587085;39;20076;-84
2021/06/12 05:56:01;;;;;;;10.10;5.78;;;21.70;99.90;;;;;;3598153;39;20313;-86
2021/06/12 05:58:29;;;;;;;14.50;6.63;;;21.80;99.90;;;;;;3588367;40;20060;-86
2021/06/12 06:00:58;;;;;;;9.20;6.43;;;21.90;99.90;;;;;;3607070;39;20087;-84
2021/06/12 06:03:26;;;;;;;10.93;6.38;;;22.00;99.90;;;;;;3596889;39;20063;-86
2021/06/12 06:05:53;;;;;;;9.63;6.70;;;22.10;99.90;;;;;;3596399;39;20081;-84
2021/06/12 06:08:22;;;;;;;9.93;6.35;;;22.30;99.90;;;;;;3590007;40;20190;-85
2021/06/12 06:10:49;;;;;;;9.52;6.43;;;22.40;99.90;;;;;;3616048;39;20032;-89
2021/06/12 06:13:18;;;;;;;10.75;6.30;;;22.50;99.90;;;;;;3597020;39;20068;-86
2021/06/12 06:15:47;;;;;;;10.75;7.35;;;22.50;99.90;;;;;;3582025;39;20304;-85
2021/06/12 06:18:15;;;;;;;10.90;6.47;;;22.30;99.90;;;;;;3597366;40;20167;-85
2021/06/12 06:20:42;;;;;;;11.13;6.82;;;22.20;99.90;;;;;;3582400;40;20065;-84
2021/06/12 06:23:11;;;;;;;10.40;6.70;;;22.30;99.90;;;;;;3600886;39;20060;-85
2021/06/12 06:25:38;;;;;;;10.05;5.90;;;22.50;99.90;;;;;;3589361;40;20080;-83
2021/06/12 06:28:06;;;;;;;7.63;6.03;;;22.50;99.90;;;;;;3596740;39;20091;-86
2021/06/12 06:30:34;;;;;;;11.02;6.03;;;22.60;99.90;;;;;;3592967;39;20035;-84
2021/06/12 06:33:02;;;;;;;8.77;5.90;;;22.50;99.90;;;;;;3597931;39;20091;-82
2021/06/12 06:35:29;;;;;;;7.22;5.32;;;22.50;99.90;;;;;;3594423;40;20072;-83
2021/06/12 06:37:57;;;;;;;11.68;6.43;;;22.50;99.90;;;;;;3589560;39;20073;-85
2021/06/12 06:40:25;;;;;;;7.88;5.65;;;22.50;99.90;;;;;;3589685;40;20076;-84
2021/06/12 06:42:52;;;;;;;8.93;5.57;;;22.50;99.90;;;;;;3591636;40;20036;-85
2021/06/12 06:45:25;;;;;;;9.82;6.30;;;22.60;99.90;;;;;;3585221;40;20363;-87
2021/06/12 06:47:54;;;;;;;8.32;5.00;;;22.80;99.90;;;;;;3587053;40;20068;-83
2021/06/12 06:50:25;;;;;;;10.57;5.60;;;23.10;99.90;;;;;;3590172;40;20083;-84
2021/06/12 06:52:52;;;;;;;8.43;4.57;;;23.30;99.90;;;;;;3600497;40;20093;-85
2021/06/12 06:55:20;;;;;;;9.20;5.30;;;23.30;99.90;;;;;;3599267;40;20061;-84
2021/06/12 06:57:48;;;;;;;7.60;4.87;;;23.40;99.90;;;;;;3589499;40;20052;-85
2021/06/12 07:00:16;;;;;;;6.40;4.25;;;23.40;99.90;;;;;;3582760;40;20061;-84
2021/06/12 07:02:44;;;;;;;8.57;5.18;;;23.40;99.90;;;;;;3589191;40;20407;-87
2021/06/12 07:05:13;;;;;;;8.27;5.57;;;23.40;99.90;;;;;;3622234;22;20338;-87
2021/06/12 07:07:41;;;;;;;6.85;5.13;;;23.30;99.90;;;;;;3621647;23;20041;-86
2021/06/12 07:10:12;;;;;;;9.68;5.68;;;23.30;99.90;;;;;;3594994;40;20091;-87
2021/06/12 07:12:40;;;;;;;8.57;5.93;;;23.20;99.90;;;;;;3595945;40;20080;-84
2021/06/12 07:15:11;;;;;;;9.00;6.03;;;23.00;99.90;;;;;;3593474;40;20357;-85
2021/06/12 07:17:39;;;;;;;10.07;5.88;;;22.90;99.90;;;;;;3590700;40;20081;-84
2021/06/12 07:20:08;;;;;;;8.50;5.07;;;23.00;99.90;;;;;;3590352;40;20084;-84
2021/06/12 07:22:37;;;;;;;9.82;5.80;;;23.00;99.90;;;;;;3587459;40;20068;-84
2021/06/12 07:25:05;;;;;;;;;;;23.20;99.90;;;;;;3595790;40;20101;-84
2021/06/12 07:27:32;;;;;;;8.82;5.00;;;23.20;99.90;;;;;;3586952;40;19960;-84
2021/06/12 07:30:00;;;;;;;10.18;5.47;;;23.30;99.90;;;;;;3595488;40;20084;-84
2021/06/12 07:32:27;;;;;;;11.17;4.90;;;23.50;99.90;;;;;;3593995;40;20306;-82
2021/06/12 07:34:54;;;;;;;12.02;6.50;;;23.80;99.90;;;;;;3583166;40;20028;-79
2021/06/12 07:37:24;;;;;;;9.32;5.82;;;23.90;99.90;;;;;;3585630;40;20092;-83
2021/06/12 07:39:53;;;;;;;9.07;5.45;;;23.30;99.90;;;;;;3582566;40;20092;-82
2021/06/12 07:42:21;;;;;;;11.55;6.20;;;23.00;99.90;;;;;;3591598;40;20080;-81
2021/06/12 07:44:50;;;;;;;10.75;6.00;;;23.20;99.90;;;;;;3594825;40;20083;-80
2021/06/12 07:47:19;;;;;;;10.15;5.63;;;23.60;99.90;;;;;;3594178;40;20084;-80
2021/06/12 07:49:46;;;;;;;8.45;5.55;;;24.10;99.90;;;;;;3589741;40;20104;-79
2021/06/12 07:52:13;;;;;;;9.10;5.75;;;24.50;99.90;;;;;;3589495;40;20065;-81
2021/06/12 07:54:40;;;;;;;9.68;5.40;;;24.50;99.90;;;;;;3592994;40;20128;-79
2021/06/12 07:57:12;;;;;;;15.27;6.18;;;24.60;99.90;;;;;;3593418;40;20076;-80
2021/06/12 07:59:40;;;;;;;8.38;5.65;;;24.70;99.90;;;;;;3592261;40;20064;-80
2021/06/12 08:02:08;;;;;;;10.05;6.22;;;24.70;99.90;;;;;;3590462;40;20091;-79
2021/06/12 08:04:36;;;;;;;12.23;5.57;;;24.70;99.90;;;;;;3595281;40;20069;-80
2021/06/12 08:07:06;;;;;;;12.80;6.38;;;24.50;99.90;;;;;;3583608;40;20064;-80
2021/06/12 08:09:34;;;;;;;11.90;5.72;;;24.30;99.90;;;;;;3584515;40;20084;-82
2021/06/12 08:12:01;;;;;;;9.93;6.03;;;24.10;99.90;;;;;;3576129;40;20390;-82
2021/06/12 08:14:33;;;;;;;11.63;6.32;;;24.00;99.90;;;;;;3578392;40;20088;-84
2021/06/12 08:17:01;;;;;;;14.88;6.05;;;23.90;99.90;;;;;;3564986;40;20145;-85
2021/06/12 08:19:29;;;;;;;7.85;5.25;;;24.00;99.90;;;;;;3587811;40;20152;-81
2021/06/12 08:21:56;;;;;;;10.30;5.53;;;24.30;99.90;;;;;;3573042;40;20324;-83
2021/06/12 08:24:24;;;;;;;10.52;6.13;;;24.90;99.90;;;;;;3588223;40;20319;-84
2021/06/12 08:26:51;;;;;;;8.57;5.57;;;24.80;99.90;;;;;;3572753;40;20088;-85
2021/06/12 08:29:23;;;;;;;8.75;6.10;;;24.80;99.90;;;;;;3578883;40;20064;-85
2021/06/12 08:31:52;;;;;;;9.52;6.07;;;24.80;99.90;;;;;;3584298;40;20092;-83
2021/06/12 08:34:22;;;;;;;7.90;6.43;;;25.00;99.50;;;;;;3582883;40;20401;-85
2021/06/12 08:36:49;;;;;;;9.00;5.90;;;24.70;99.90;;;;;;3587406;40;20076;-81
2021/06/12 08:39:17;;;;;;;12.80;6.60;;;24.60;99.90;;;;;;3575112;40;20090;-80
2021/06/12 08:41:44;;;;;;;9.93;5.97;;;24.70;99.50;;;;;;3579056;39;20064;-79
2021/06/12 08:44:14;;;;;;;9.25;6.22;;;24.80;99.50;;;;;;3589978;40;20401;-81
2021/06/12 08:46:41;;;;;;;8.63;5.25;;;24.80;99.70;;;;;;3584272;40;20088;-82
2021/06/12 08:49:10;;;;;;;10.43;5.77;;;24.70;99.20;;;;;;3576587;40;20072;-82
2021/06/12 08:51:38;;;;;;;11.90;5.70;;;24.80;98.90;;;;;;3587171;40;20122;-82
2021/06/12 08:54:09;;;;;;;11.07;6.07;;;24.90;98.70;;;;;;3573298;40;20372;-82
2021/06/12 08:56:37;;;;;;;11.05;6.32;;;25.00;98.40;;;;;;3581561;40;20083;-81
2021/06/12 08:59:05;;;;;;;11.68;6.70;;;24.90;97.70;;;;;;3585023;40;20064;-82
2021/06/12 09:01:32;;;;;;;19.95;6.60;;;24.80;97.20;;;;;;3594404;40;20062;-83
2021/06/12 09:03:59;;;;;;;16.38;6.60;;;24.60;97.40;;;;;;3582037;40;20084;-83
2021/06/12 09:06:28;;;;;;;11.43;7.15;;;24.40;97.80;;;;;;3585873;40;20072;-82
2021/06/12 09:08:57;;;;;;;14.10;6.32;;;24.10;98.20;;;;;;3587973;40;20042;-84
2021/06/12 09:11:27;;;;;;;8.90;6.40;;;24.10;98.70;;;;;;3576772;40;20115;-86
2021/06/12 09:14:01;;;;;;;11.98;6.65;;;23.80;99.10;;;;;;3585701;40;20076;-86
2021/06/12 09:16:33;;;;;;;12.45;6.53;;;23.80;99.00;;;;;;3586958;40;20112;-83
2021/06/12 09:19:05;;;;;;;17.08;6.88;;;24.00;98.90;;;;;;3583023;40;20071;-83
2021/06/12 09:21:36;;;;;;;11.43;6.18;;;24.30;98.70;;;;;;3593229;40;20304;-84
2021/06/12 09:24:08;;;;;;;9.65;6.40;;;24.50;98.50;;;;;;3583422;39;20088;-84
2021/06/12 09:26:46;;;;;;;9.82;4.95;;;25.00;97.50;;;;;;3595691;40;20072;-83
2021/06/12 09:29:19;;;;;;;9.18;5.43;;;25.10;96.40;;;;;;3585345;40;20407;-83
2021/06/12 09:31:51;;;;;;;8.40;5.18;;;25.70;95.00;;;;;;3593340;40;20033;-82
2021/06/12 09:34:23;;;;;;;7.72;5.20;;;26.00;94.30;;;;;;3585007;40;20028;-82
2021/06/12 09:36:52;;;;;;;7.90;4.70;;;25.70;94.10;;;;;;3593220;40;20084;-84
2021/06/12 09:39:21;;;;;;;11.25;5.40;;;25.60;94.60;;;;;;3588873;40;20057;-84
2021/06/12 09:41:50;;;;;;;6.10;4.22;;;25.70;94.30;;;;;;3588232;40;20071;-83
2021/06/12 09:44:32;;;;;;;8.02;4.30;;;25.40;94.10;;;;;;3588458;40;20068;-84
2021/06/12 09:47:00;;;;;;;8.98;5.30;;;25.10;94.90;;;;;;3588037;40;20080;-80
2021/06/12 09:49:33;;;;;;;6.68;4.72;;;25.00;95.50;;;;;;3587824;40;20080;-83
2021/06/12 09:52:08;;;;;;;8.35;3.90;;;24.80;96.20;;;;;;3588106;40;20072;-82
2021/06/12 09:54:38;;;;;;;5.25;3.60;;;24.40;95.90;;;;;;3567491;40;20095;-80
2021/06/12 09:57:08;;;;;;;5.13;3.25;;;24.10;95.50;;;;;;3575290;40;20072;-79
2021/06/12 09:59:45;;;;;;;7.70;3.08;;;24.20;94.80;;;;;;3576238;40;20379;-81
2021/06/12 10:02:13;;;;;;;9.73;2.95;;;24.40;94.20;;;;;;3581629;40;20064;-81
2021/06/12 10:04:56;;;;;;;5.78;3.10;;;24.60;93.90;;;;;;3593787;40;20068;-82
2021/06/12 10:07:26;;;;;;;6.38;3.10;;;24.90;93.30;;;;;;3598504;40;20076;-83
2021/06/12 10:09:54;;;;;;;6.97;3.35;;;25.10;92.50;;;;;;3592520;39;20075;-84
2021/06/12 10:12:23;;;;;;;14.68;6.78;;;24.80;93.20;;;;;;3581668;40;20148;-84
2021/06/12 10:14:52;;;;;;;8.90;3.90;;;24.40;94.20;;;;;;3580958;40;20330;-82
2021/06/12 10:17:21;;;;;;;8.23;3.50;;;24.50;94.40;;;;;;3589660;40;20072;-83
2021/06/12 10:19:51;;;;;;;7.70;3.90;;;25.10;93.50;;;;;;3574272;40;20426;-82
2021/06/12 10:22:19;;;;;;;10.60;3.42;;;25.90;92.10;;;;;;3588883;40;20327;-82
2021/06/12 10:24:48;;;;;;;5.32;3.20;;;26.20;91.30;;;;;;3591727;40;20068;-83
2021/06/12 10:27:17;;;;;;;7.28;3.00;;;26.10;91.00;;;;;;3588855;40;20328;-82
2021/06/12 10:29:45;;;;;;;6.68;3.25;;;26.10;91.00;;;;;;3581094;40;20068;-83
2021/06/12 10:32:17;;;;;;;4.50;2.40;;;26.80;89.30;;;;;;3574641;40;20048;-82
2021/06/12 10:34:45;;;;;;;7.10;2.55;;;27.10;84.60;;;;;;3585234;40;20092;-84
2021/06/12 10:37:17;;;;;;;5.05;2.30;;;27.10;82.70;;;;;;3597157;40;20300;-82
2021/06/12 10:40:04;;;;;;;9.65;1.80;;;26.80;81.30;;;;;;3594767;40;20064;-82
2021/06/12 10:42:33;;;;;;;5.00;1.85;;;26.80;80.20;;;;;;3581272;40;20068;-81
2021/06/12 10:45:12;;;;;;;5.23;1.63;;;26.90;79.20;;;;;;3589976;40;20387;-82
2021/06/12 10:47:42;;;;;;;5.85;1.60;;;26.60;76.90;;;;;;3592103;40;20092;-82
2021/06/12 10:50:46;;;;;;;6.95;1.70;;;26.50;76.70;;;;;;3574744;40;20372;-83
2021/06/12 10:53:17;;;;;;;4.57;1.65;;;25.90;76.40;;;;;;3550926;40;20085;-82
2021/06/12 10:55:48;;;;;;;10.68;1.73;;;25.60;78.70;;;;;;3587490;40;20163;-82
2021/06/12 10:58:47;;;;;;;5.43;1.90;;;25.80;79.30;;;;;;3586124;40;20068;-81
2021/06/12 11:01:17;;;;;;;12.07;1.90;;;25.70;78.50;;;;;;3583764;40;20096;-82
2021/06/12 11:03:51;;;;;;;3.10;1.60;;;25.20;79.90;;;;;;3593472;40;20068;-81
2021/06/12 11:06:33;;;;;;;3.67;2.00;;;25.30;81.40;;;;;;3585820;40;20065;-82
2021/06/12 11:09:29;;;;;;;4.05;1.60;;;25.20;78.40;;;;;;3586377;40;20087;-82
2021/06/12 11:12:02;;;;;;;3.28;1.83;;;24.80;78.40;;;;;;3590389;40;20073;-81
2021/06/12 11:14:32;;;;;;;3.75;1.75;;;24.50;78.50;;;;;;3598225;40;20084;-81
2021/06/12 11:17:18;;;;;;;4.45;2.15;;;24.30;79.70;;;;;;3595374;40;20081;-81
2021/06/12 11:19:52;;;;;;;4.30;1.63;;;24.20;79.50;;;;;;3585433;40;20089;-80
2021/06/12 11:22:27;;;;;;;3.60;1.90;;;23.90;80.80;;;;;;3589238;40;20088;-82
2021/06/12 11:24:57;;;;;;;7.50;1.67;;;23.70;82.20;;;;;;3579290;40;20081;-83
2021/06/12 11:27:42;;;;;;;8.35;2.03;;;23.50;83.40;;;;;;3590352;40;20078;-80
2021/06/12 11:30:12;;;;;;;4.70;2.10;;;23.50;83.90;;;;;;3582680;40;20143;-82
2021/06/12 11:32:40;;;;;;;4.95;2.17;;;23.70;84.10;;;;;;3589597;40;20123;-81
2021/06/12 11:35:10;;;;;;;6.18;2.22;;;23.70;84.90;;;;;;3589848;40;20413;-82
2021/06/12 11:37:52;;;;;;;6.93;2.20;;;23.60;85.80;;;;;;3592026;40;20151;-81
2021/06/12 11:40:22;;;;;;;4.22;2.47;;;23.70;86.40;;;;;;3581557;40;20085;-83
2021/06/12 11:42:53;;;;;;;7.57;2.60;;;23.50;87.70;;;;;;3593431;40;20085;-81
2021/06/12 11:45:30;;;;;;;5.38;2.80;;;23.40;89.10;;;;;;3594725;40;20033;-81
2021/06/12 11:48:00;;;;;;;4.72;2.70;;;23.30;90.00;;;;;;3590953;40;20069;-81
2021/06/12 11:50:29;;;;;;;6.22;3.13;;;23.20;90.60;;;;;;3587934;40;20080;-82
2021/06/12 11:53:02;;;;;;;9.60;3.33;;;23.00;91.20;;;;;;3590235;40;20310;-82
2021/06/12 11:55:30;;;;;;;6.78;3.40;;;22.90;91.90;;;;;;3582184;40;20079;-80
2021/06/12 11:58:03;;;;;;;4.32;2.67;;;22.80;92.10;;;;;;3580712;40;20080;-81
2021/06/12 12:00:32;;;;;;;9.38;2.70;;;22.90;92.10;;;;;;3589761;40;20364;-82
2021/06/12 12:03:02;;;;;;;4.93;3.15;;;22.90;92.30;;;;;;3581603;40;20081;-82
2021/06/12 12:05:36;;;;;;;5.13;3.10;;;23.00;92.10;;;;;;3588615;40;20068;-81
2021/06/12 12:08:07;;;;;;;5.72;2.95;;;23.10;92.10;;;;;;3591780;40;20308;-86
2021/06/12 12:10:43;;;;;;;7.53;3.28;;;23.20;92.30;;;;;;3582943;39;20317;-82
2021/06/12 12:13:34;;;;;;;7.68;3.17;;;23.50;92.10;;;;;;3596662;39;20353;-81
2021/06/12 12:16:04;;;;;;;5.63;3.63;;;23.80;91.20;;;;;;3583387;39;20076;-81
2021/06/12 12:18:46;;;;;;;7.28;3.10;;;24.20;90.50;;;;;;3595214;40;20061;-80
2021/06/12 12:21:27;;;;;;;7.38;3.53;;;24.30;90.00;;;;;;3600366;40;20104;-82
2021/06/12 12:23:55;;;;;;;4.97;2.63;;;24.20;90.30;;;;;;3584587;40;20059;-81
2021/06/12 12:26:25;;;;;;;9.27;3.03;;;24.50;90.10;;;;;;3582936;40;20064;-81
2021/06/12 12:28:55;;;;;;;5.32;2.78;;;24.70;88.80;;;;;;3594550;40;20096;-83
2021/06/12 12:31:22;;;;;;;6.18;3.15;;;24.60;89.30;;;;;;3591236;40;20091;-83
2021/06/12 12:33:54;;;;;;;4.72;2.80;;;24.60;89.50;;;;;;3587725;40;20358;-82
2021/06/12 12:36:24;;;;;;;5.70;3.28;;;24.80;89.00;;;;;;3582701;40;20398;-81
2021/06/12 12:38:59;;;;;;;5.65;3.30;;;24.80;89.20;;;;;;3588571;40;20064;-83
2021/06/12 12:41:31;;;;;;;6.07;2.95;;;24.50;90.10;;;;;;3591473;39;20091;-82
2021/06/12 12:44:14;;;;;;;4.82;3.03;;;24.30;90.70;;;;;;3585844;39;20091;-82
2021/06/12 12:46:43;;;;;;;8.98;3.28;;;24.20;91.00;;;;;;3586609;39;20064;-82
2021/06/12 12:49:18;;;;;;;4.95;3.10;;;24.60;90.70;;;;;;3604579;39;20387;-82
2021/06/12 12:51:53;;;;;;;10.68;2.90;;;24.60;90.50;;;;;;3595242;40;20390;-81
2021/06/12 12:54:25;;;;;;;4.38;3.17;;;24.20;91.20;;;;;;3603602;39;20036;-80
2021/06/12 12:56:53;;;;;;;;;;;24.20;91.30;;;;;;3583511;40;20072;-81
2021/06/12 12:59:30;;;;;;;5.75;2.97;;;24.30;91.40;;;;;;3597042;40;19964;-81
2021/06/12 13:02:08;;;;;;;4.83;2.70;;;24.00;91.80;;;;;;3588609;39;20076;-81